Hierro, El Hierro Airport (GCHI)

NameEl Hierro Airport
CityHierro
CountrySpain
ICAOGCHI
IATAVDE
Altitude31 m
CoordinatesGoogle Map
Live Air TrafficLiveATC.net
METARGCHI 231600Z 01015KT 330V040 9999 FEW025 24/17 Q1018
2019-07-23 16:00:00 Wind: North (10°) 7.72 m/s - Visibility: > 10000 m - Temperature: 24 °C - Dew point: 17 °C - Humidity: 65% - Pressure: 1018 hPa
Statistics

The table below shows the detailed information of all flights to/from Hierro, El Hierro Airport (GCHI).

Ident Aircraft Coming fromFrom Going toTo Owner nameOwnerSpotted durationDurationDate
NA - NA - Centavia CNA14S Not Available Not Available NA , Spain (GCGM) GCGM
277 km
Hierro, Spain (GCHI) GCHI
345 km
- - - - Sat, 20 Jul 2019 10:02:13 +0000 20/7/2019 10:02 am
NA - NA - Centavia CNA24 Not Available Not Available NA , Spain (GCGM) GCGM
85 km
Hierro, Spain (GCHI) GCHI
151 km
- - - - Thu, 04 Jul 2019 11:59:56 +0000 4/7/2019 11:59 am
NA - NA - Centavia CNA14S Not Available Not Available NA , Spain (GCGM) GCGM
60 km
Hierro, Spain (GCHI) GCHI
11 km
- - 00:40:32 00:40:32 Sat, 22 Jun 2019 08:41:01 +0000 22/6/2019 8:41 am
Sat, 22 Jun 2019 09:21:33 +0000 22/6/2019 9:21 am
NA - NA - Centavia CNA24 Not Available Not Available NA , Spain (GCGM) GCGM
94 km
Hierro, Spain (GCHI) GCHI
164 km
- - 00:23:20 00:23:20 Tue, 18 Jun 2019 09:07:37 +0000 18/6/2019 9:07 am
Tue, 18 Jun 2019 09:30:57 +0000 18/6/2019 9:30 am